< Cyclone 199301 1993 Season Cyclone 199303 >
Cyclone 199302 (NINA)
General InformationTrack Information on Google MapsDetailed Wind InformationList of All Images || ResourceGoogle EarthGE AnimationAtom FeedGeoJSON
Detalied Best Track (Time Zone = UTC)
Year Month Day Hour Lat. Long. Pressure (hPa) Wind (kt) Class Image Chart
1992 12 23 00 -12.9 140.0 996 31 2 Image --
1992 12 23 06 -12.4 139.6 996 31 2 Image --
1992 12 23 12 -11.9 139.7 995 35 3 Image --
1992 12 23 18 -12.0 140.1 995 35 3 Image --
1992 12 24 00 -12.3 140.3 990 41 3 Image --
1992 12 24 06 -12.6 140.5 985 51 4 Image --
1992 12 24 12 -12.8 140.8 975 60 4 Image --
1992 12 24 18 -13.3 141.1 970 60 4 Image --
1992 12 25 00 -13.8 141.3 970 60 4 Image --
1992 12 25 06 -14.0 141.5 970 60 4 Image --
1992 12 25 12 -14.1 141.7 975 54 4 Image --
1992 12 25 18 -14.2 142.0 980 51 4 Image --
1992 12 26 00 -14.3 142.3 985 45 3 Image --
1992 12 26 06 -14.3 142.7 985 45 3 Image --
1992 12 26 12 -14.2 143.0 990 45 3 Image --
1992 12 26 18 -14.1 143.1 990 45 3 Image --
1992 12 27 00 -14.0 143.2 990 45 3 Image --
1992 12 27 06 -13.7 143.4 990 45 3 Image --
1992 12 27 12 -13.4 144.1 995 31 2 Image --
1992 12 27 18 -13.2 144.7 995 31 2 Image --
1992 12 28 00 -13.1 145.5 990 41 3 Image --
1992 12 28 06 -13.3 146.3 990 41 3 Image --
1992 12 28 12 -13.5 146.8 990 41 3 Image --
1992 12 28 18 -13.6 147.3 990 41 3 Image --
1992 12 29 00 -14.1 148.7 990 45 3 Image --
1992 12 29 06 -14.6 149.9 985 51 4 Image --
1992 12 29 12 -15.0 150.9 980 60 4 Image --
1992 12 29 18 -15.1 151.3 980 60 4 Image --
1992 12 30 00 -14.8 152.0 975 64 5 Image --
1992 12 30 06 -14.5 152.5 970 70 5 Image --
1992 12 30 12 -14.2 153.2 970 70 5 Image --
1992 12 30 18 -13.8 153.8 970 64 5 Image --
1992 12 31 00 -13.4 154.6 970 64 5 Image --
1992 12 31 06 -13.1 155.2 965 64 5 Image --
1992 12 31 12 -12.8 155.8 965 70 5 Image --
1992 12 31 18 -12.5 156.7 960 70 5 Image --
1993 1 1 00 -11.9 158.0 960 76 5 Image --
1993 1 1 06 -11.7 159.2 960 76 5 Image --
1993 1 1 12 -11.6 160.4 960 76 5 Image --
1993 1 1 18 -11.5 161.7 960 76 5 Image --
1993 1 2 00 -11.4 163.8 960 76 5 Image --
1993 1 2 06 -11.4 165.8 965 70 5 Image --
1993 1 2 12 -11.5 168.5 975 60 4 Image --
1993 1 2 18 -11.6 170.9 980 60 4 Image --
< Cyclone 199301 1993 Season Cyclone 199303 >

Help